Time;durP1;ratioP1;P1;durP2;ratioP2;P2;SDS_P1;SDS_P2;PMS_P1;PMS_P2;Temp;Humidity;BMP_temperature;BMP_pressure;BME280_temperature;BME280_humidity;BME280_pressure;Samples;Min_cycle;Max_cycle;Signal;HPM_P1;HPM_P2
2022/09/07 00:00:28;;;;;;;7.57;5.35;;;19.00;99.90;;;;;;4995036;28;20050;-76
2022/09/07 00:02:54;;;;;;;8.65;4.82;;;19.50;99.90;;;;;;4994176;28;20052;-76
2022/09/07 00:05:20;;;;;;;8.25;5.13;;;19.40;99.90;;;;;;4994271;28;20391;-76
2022/09/07 00:07:45;;;;;;;7.00;5.28;;;19.30;99.90;;;;;;4995120;28;20055;-76
2022/09/07 00:10:11;;;;;;;8.15;5.78;;;19.40;99.90;;;;;;4997645;28;20046;-76
2022/09/07 00:12:37;;;;;;;6.38;5.38;;;19.40;99.90;;;;;;4997411;28;20387;-76
2022/09/07 00:15:07;;;;;;;6.50;5.25;;;19.20;99.90;;;;;;4997635;28;20090;-76
2022/09/07 00:17:33;;;;;;;6.25;5.00;;;19.20;99.90;;;;;;4997908;28;20133;-76
2022/09/07 00:19:58;;;;;;;6.45;5.78;;;19.10;99.90;;;;;;4997882;28;20050;-76
2022/09/07 00:22:24;;;;;;;6.85;5.53;;;19.20;99.90;;;;;;4997815;28;20108;-76
2022/09/07 00:24:50;;;;;;;7.90;5.60;;;19.20;99.90;;;;;;4997800;28;20489;-76
2022/09/07 00:27:16;;;;;;;7.15;5.65;;;19.20;99.90;;;;;;4998298;28;20517;-77
2022/09/07 00:29:41;;;;;;;6.82;5.60;;;19.10;99.90;;;;;;4996796;28;20089;-76
2022/09/07 00:32:07;;;;;;;6.53;5.22;;;18.90;99.90;;;;;;4998315;28;20076;-76
2022/09/07 00:34:33;;;;;;;8.88;5.80;;;19.10;99.90;;;;;;4997326;28;20050;-76
2022/09/07 00:36:59;;;;;;;9.38;6.03;;;19.00;99.90;;;;;;4998278;28;20050;-76
2022/09/07 00:39:25;;;;;;;6.10;5.50;;;19.10;99.90;;;;;;4997010;28;20454;-77
2022/09/07 00:41:50;;;;;;;7.68;5.82;;;19.00;99.90;;;;;;4997492;28;20050;-76
2022/09/07 00:45:01;;;;;;;8.35;5.93;;;19.00;99.90;;;;;;4997757;28;20129;-76
2022/09/07 00:47:39;;;;;;;8.35;5.68;;;18.90;99.90;;;;;;4997183;28;20047;-76
2022/09/07 00:50:17;;;;;;;8.00;5.90;;;19.00;99.90;;;;;;4996706;28;20050;-76
2022/09/07 00:52:46;;;;;;;7.50;5.93;;;18.90;99.90;;;;;;4997282;28;20565;-76
2022/09/07 00:55:15;;;;;;;6.00;5.40;;;18.90;99.90;;;;;;4996024;28;20050;-76
2022/09/07 00:57:45;;;;;;;6.93;5.68;;;18.90;99.90;;;;;;4995788;28;20049;-76
2022/09/07 01:00:11;;;;;;;7.25;6.05;;;18.90;99.90;;;;;;4995721;28;20565;-76
2022/09/07 01:02:37;;;;;;;8.40;5.80;;;19.00;99.90;;;;;;4997861;28;20049;-76
2022/09/07 01:05:12;;;;;;;7.30;5.75;;;19.00;99.90;;;;;;4996127;28;20050;-76
2022/09/07 01:07:38;;;;;;;7.05;5.60;;;19.00;99.90;;;;;;4996941;28;20047;-76
2022/09/07 01:10:04;;;;;;;7.85;6.18;;;19.00;99.90;;;;;;4995712;28;20042;-76
2022/09/07 01:12:30;;;;;;;8.20;6.20;;;19.00;99.90;;;;;;4997466;28;20054;-76
2022/09/07 01:14:56;;;;;;;8.15;6.07;;;19.10;99.90;;;;;;4996843;28;20057;-76
2022/09/07 01:17:46;;;;;;;7.53;5.88;;;18.90;99.90;;;;;;4997358;28;20047;-77
2022/09/07 01:20:44;;;;;;;7.43;6.13;;;18.80;99.90;;;;;;4996807;28;20450;-77
2022/09/07 01:23:29;;;;;;;8.25;7.07;;;19.00;99.90;;;;;;4997069;28;20404;-77
2022/09/07 01:26:22;;;;;;;7.95;6.18;;;18.90;99.90;;;;;;4996965;28;20046;-77
2022/09/07 01:28:58;;;;;;;7.68;6.55;;;18.70;99.90;;;;;;4995414;28;20046;-77
2022/09/07 01:31:36;;;;;;;8.32;7.35;;;18.80;99.90;;;;;;4996603;28;20137;-76
2022/09/07 01:34:22;;;;;;;7.15;6.50;;;18.60;99.90;;;;;;4996549;28;20050;-76
2022/09/07 01:36:56;;;;;;;7.95;7.05;;;18.60;99.90;;;;;;4996160;28;20100;-76
2022/09/07 01:39:42;;;;;;;9.32;7.45;;;18.60;99.90;;;;;;4995498;28;20046;-76
2022/09/07 01:42:11;;;;;;;9.13;8.18;;;18.60;99.90;;;;;;4996946;28;20042;-76
2022/09/07 01:44:47;;;;;;;13.85;8.82;;;18.50;99.90;;;;;;4996294;28;20129;-76
2022/09/07 01:47:35;;;;;;;12.45;9.10;;;18.50;99.90;;;;;;4995986;28;20061;-75
2022/09/07 01:50:10;;;;;;;13.32;8.55;;;18.40;99.90;;;;;;4996695;28;20054;-76
2022/09/07 01:53:00;;;;;;;27.95;13.50;;;18.50;99.90;;;;;;4996214;28;20092;-75
2022/09/07 01:55:34;;;;;;;19.95;13.73;;;18.30;99.90;;;;;;4995580;28;20056;-75
2022/09/07 01:58:08;;;;;;;14.02;11.70;;;18.20;99.90;;;;;;4995911;28;20101;-75
2022/09/07 02:00:37;;;;;;;19.17;13.85;;;18.30;99.90;;;;;;4996327;28;20541;-77
2022/09/07 02:03:38;;;;;;;17.25;12.45;;;17.90;99.90;;;;;;4996479;28;20050;-76
2022/09/07 02:06:17;;;;;;;16.50;12.43;;;17.90;99.90;;;;;;4995713;28;20054;-76
2022/09/07 02:09:07;;;;;;;16.75;11.45;;;17.80;99.90;;;;;;4995858;28;20491;-77
2022/09/07 02:11:39;;;;;;;15.20;11.48;;;17.70;99.90;;;;;;4994629;28;20066;-75
2022/09/07 02:14:15;;;;;;;14.77;11.82;;;17.60;99.90;;;;;;4978349;28;20050;-75
2022/09/07 02:17:07;;;;;;;13.93;11.77;;;17.50;99.90;;;;;;4995832;28;20053;-74
2022/09/07 02:19:41;;;;;;;16.20;12.18;;;17.20;99.90;;;;;;4989064;28;20076;-76
2022/09/07 02:22:12;;;;;;;13.57;11.93;;;17.30;99.90;;;;;;4995656;28;20496;-76
2022/09/07 02:24:45;;;;;;;15.60;11.30;;;17.10;99.90;;;;;;4995860;28;20533;-77
2022/09/07 02:27:16;;;;;;;16.63;12.95;;;17.30;99.90;;;;;;4994318;28;20054;-76
2022/09/07 02:29:44;;;;;;;15.70;12.93;;;17.00;99.90;;;;;;4995529;28;20046;-75
2022/09/07 02:32:10;;;;;;;16.98;13.68;;;17.10;99.90;;;;;;4995052;28;20561;-74
2022/09/07 02:34:36;;;;;;;17.17;13.88;;;17.00;99.90;;;;;;4995401;28;20047;-75
2022/09/07 02:37:04;;;;;;;16.30;14.60;;;16.90;99.90;;;;;;4994301;28;20050;-75
2022/09/07 02:39:30;;;;;;;15.55;13.82;;;16.90;99.90;;;;;;4995295;28;20085;-75
2022/09/07 02:41:56;;;;;;;15.82;12.73;;;16.90;99.90;;;;;;4995998;28;20073;-77
2022/09/07 02:44:30;;;;;;;16.48;13.05;;;17.00;99.90;;;;;;4995793;28;20471;-75
2022/09/07 02:47:38;;;;;;;15.98;13.30;;;17.10;99.90;;;;;;4995104;28;20042;-76
2022/09/07 02:50:25;;;;;;;14.70;13.05;;;16.80;99.90;;;;;;4994832;28;20483;-74
2022/09/07 02:53:28;;;;;;;17.83;13.40;;;16.80;99.90;;;;;;4995372;28;20054;-75
2022/09/07 02:56:24;;;;;;;14.18;12.70;;;17.10;99.90;;;;;;4994623;28;20054;-75
2022/09/07 02:59:28;;;;;;;15.15;13.23;;;17.00;99.90;;;;;;4994893;28;20066;-75
2022/09/07 03:02:03;;;;;;;17.27;13.25;;;17.10;99.90;;;;;;4994940;28;20054;-74
2022/09/07 03:04:53;;;;;;;16.67;13.68;;;17.30;99.90;;;;;;4995084;28;20042;-75
2022/09/07 03:07:24;;;;;;;15.93;12.60;;;17.10;99.90;;;;;;4994709;28;20049;-75
2022/09/07 03:09:55;;;;;;;19.83;15.80;;;17.50;99.90;;;;;;4994885;28;20054;-75
2022/09/07 03:12:21;;;;;;;18.63;14.68;;;17.40;99.90;;;;;;4995317;28;20050;-75
2022/09/07 03:14:47;;;;;;;15.98;13.20;;;17.50;99.90;;;;;;4994686;28;20387;-75
2022/09/07 03:17:13;;;;;;;14.95;12.73;;;17.30;99.90;;;;;;4994635;28;20115;-75
2022/09/07 03:19:39;;;;;;;15.63;13.77;;;17.50;99.90;;;;;;4994658;28;20042;-74
2022/09/07 03:22:05;;;;;;;17.35;13.68;;;17.30;99.90;;;;;;4995093;28;20054;-74
2022/09/07 03:24:31;;;;;;;16.17;13.95;;;17.50;99.90;;;;;;4995046;28;20172;-75
2022/09/07 03:26:57;;;;;;;17.65;14.52;;;17.20;99.90;;;;;;4994398;28;20168;-75
2022/09/07 03:29:23;;;;;;;16.85;14.88;;;17.40;99.90;;;;;;4994440;28;20058;-75
2022/09/07 03:31:48;;;;;;;18.02;15.05;;;17.50;99.90;;;;;;4994449;28;20046;-75
2022/09/07 03:34:15;;;;;;;18.27;14.70;;;17.30;99.90;;;;;;4994357;28;20406;-75
2022/09/07 03:36:41;;;;;;;17.95;14.80;;;17.30;99.90;;;;;;4994295;28;20049;-75
2022/09/07 03:39:09;;;;;;;17.33;14.98;;;17.30;99.90;;;;;;4994317;28;20137;-75
2022/09/07 03:41:35;;;;;;;16.60;14.68;;;17.10;99.90;;;;;;4994305;28;20045;-75
2022/09/07 03:44:03;;;;;;;18.65;15.32;;;17.20;99.90;;;;;;4994798;28;20475;-75
2022/09/07 03:46:29;;;;;;;17.48;15.02;;;17.50;99.90;;;;;;4994302;28;20042;-75
2022/09/07 03:48:55;;;;;;;17.05;15.27;;;17.30;99.90;;;;;;4994161;28;20537;-75
2022/09/07 03:51:21;;;;;;;19.85;15.50;;;17.30;99.90;;;;;;4995028;28;20104;-75
2022/09/07 03:53:47;;;;;;;20.27;15.88;;;17.20;99.90;;;;;;4993044;28;20052;-75
2022/09/07 03:56:16;;;;;;;18.10;15.55;;;17.20;99.90;;;;;;4994183;28;20097;-75
2022/09/07 03:58:43;;;;;;;19.90;16.58;;;17.10;99.90;;;;;;4994088;28;20132;-75
2022/09/07 04:01:12;;;;;;;21.40;15.63;;;17.10;99.90;;;;;;4994139;28;20085;-76
2022/09/07 04:03:38;;;;;;;18.67;16.08;;;17.20;99.90;;;;;;4994131;28;20054;-76
2022/09/07 04:06:04;;;;;;;20.40;17.02;;;17.00;99.90;;;;;;4994557;28;20054;-74
2022/09/07 04:08:32;;;;;;;20.40;16.85;;;17.20;99.90;;;;;;4994037;28;20050;-74
2022/09/07 04:10:59;;;;;;;18.05;15.85;;;17.30;99.90;;;;;;4994066;28;20050;-75
2022/09/07 04:13:26;;;;;;;19.10;16.75;;;17.30;99.90;;;;;;4994022;28;20046;-74
2022/09/07 04:15:52;;;;;;;21.02;16.67;;;17.30;99.90;;;;;;4994548;28;20046;-74
2022/09/07 04:18:19;;;;;;;20.27;17.05;;;17.40;99.90;;;;;;4994813;28;20100;-75
2022/09/07 04:20:45;;;;;;;21.98;18.20;;;17.00;99.90;;;;;;4993990;28;20497;-75
2022/09/07 04:23:11;;;;;;;22.00;17.55;;;16.90;99.90;;;;;;4993971;28;20494;-74
2022/09/07 04:25:37;;;;;;;23.27;16.35;;;17.30;99.90;;;;;;4994206;28;20054;-74
2022/09/07 04:28:03;;;;;;;20.50;16.83;;;17.10;99.90;;;;;;4993802;28;20046;-74
2022/09/07 04:30:29;;;;;;;21.73;17.30;;;17.10;99.90;;;;;;4994386;28;20399;-74
2022/09/07 04:32:55;;;;;;;20.02;16.77;;;17.00;99.90;;;;;;4993900;28;20061;-75
2022/09/07 04:35:21;;;;;;;20.15;16.52;;;17.10;99.90;;;;;;4993909;28;20089;-74
2022/09/07 04:37:47;;;;;;;19.77;16.23;;;17.10;99.90;;;;;;4993717;28;20475;-75
2022/09/07 04:40:13;;;;;;;19.58;17.33;;;17.20;99.90;;;;;;4994584;28;20108;-74
2022/09/07 04:42:38;;;;;;;20.30;16.25;;;17.00;99.90;;;;;;4993829;28;20042;-75
2022/09/07 04:45:05;;;;;;;19.92;16.30;;;17.10;99.90;;;;;;4993716;28;20130;-75
2022/09/07 04:47:30;;;;;;;22.35;17.67;;;17.00;99.90;;;;;;4992307;28;20046;-75
2022/09/07 04:49:56;;;;;;;20.55;15.90;;;16.90;99.90;;;;;;4992807;28;20057;-75
2022/09/07 04:52:23;;;;;;;20.48;16.50;;;17.10;99.90;;;;;;4993673;28;20070;-75
2022/09/07 04:54:49;;;;;;;18.15;16.15;;;17.00;99.90;;;;;;4995949;28;20093;-75
2022/09/07 04:57:17;;;;;;;21.13;17.42;;;17.00;99.90;;;;;;4997974;28;20430;-75
2022/09/07 04:59:42;;;;;;;21.30;17.52;;;16.90;99.90;;;;;;4997055;28;20387;-75
2022/09/07 05:02:08;;;;;;;20.67;17.17;;;17.00;99.90;;;;;;4996962;28;20050;-75
2022/09/07 05:04:35;;;;;;;20.50;17.27;;;16.90;99.90;;;;;;4997075;28;20095;-75
2022/09/07 05:07:01;;;;;;;18.55;16.17;;;17.10;99.90;;;;;;4996890;28;20038;-75
2022/09/07 05:09:26;;;;;;;20.70;16.50;;;16.90;99.90;;;;;;4997008;28;20042;-75
2022/09/07 05:11:52;;;;;;;19.63;16.73;;;16.90;99.90;;;;;;4996989;28;20085;-75
2022/09/07 05:14:19;;;;;;;21.10;16.92;;;16.90;99.90;;;;;;4997475;28;20046;-75
2022/09/07 05:16:44;;;;;;;17.88;15.98;;;16.90;99.90;;;;;;4996805;28;20050;-75
2022/09/07 05:19:12;;;;;;;17.60;15.40;;;17.10;99.90;;;;;;4996587;28;20050;-75
2022/09/07 05:21:37;;;;;;;22.50;18.10;;;16.90;99.90;;;;;;4996752;28;20449;-75
2022/09/07 05:24:04;;;;;;;19.50;17.20;;;16.80;99.90;;;;;;4996757;28;20050;-75
2022/09/07 05:26:33;;;;;;;23.45;18.30;;;16.80;99.90;;;;;;4997440;28;20046;-75
2022/09/07 05:29:01;;;;;;;26.70;19.38;;;16.70;99.90;;;;;;4995423;28;20051;-75
2022/09/07 05:31:27;;;;;;;20.60;16.45;;;17.00;99.90;;;;;;4996637;28;20117;-74
2022/09/07 05:33:56;;;;;;;21.15;17.35;;;16.80;99.90;;;;;;4997067;28;20046;-75
2022/09/07 05:36:24;;;;;;;20.23;17.60;;;16.80;99.90;;;;;;4996430;28;20046;-75
2022/09/07 05:38:50;;;;;;;21.15;18.25;;;16.90;99.90;;;;;;4996273;28;20058;-75
2022/09/07 05:41:19;;;;;;;19.65;17.00;;;16.90;99.90;;;;;;4996109;28;20503;-74
2022/09/07 05:43:46;;;;;;;19.95;17.02;;;16.90;99.90;;;;;;4996367;28;20042;-75
2022/09/07 05:46:12;;;;;;;20.92;18.20;;;16.90;99.90;;;;;;4997066;28;20051;-75
2022/09/07 05:48:38;;;;;;;20.38;17.77;;;16.80;99.90;;;;;;4997005;28;20038;-75
2022/09/07 05:51:05;;;;;;;21.60;18.55;;;16.90;99.90;;;;;;4995951;28;20525;-76
2022/09/07 05:53:33;;;;;;;24.92;19.27;;;17.00;99.90;;;;;;4996214;28;20050;-75
2022/09/07 05:56:00;;;;;;;22.88;18.90;;;17.10;99.90;;;;;;4995867;28;20517;-75
2022/09/07 05:58:27;;;;;;;20.70;18.17;;;17.00;99.90;;;;;;4996190;28;20050;-75
2022/09/07 06:00:57;;;;;;;21.50;18.67;;;17.10;99.90;;;;;;4996093;28;20413;-75
2022/09/07 06:03:23;;;;;;;22.38;17.75;;;17.00;99.90;;;;;;4995042;28;20047;-75
2022/09/07 06:06:01;;;;;;;22.80;19.38;;;16.80;99.90;;;;;;4994894;28;20391;-75
2022/09/07 06:08:28;;;;;;;23.63;19.85;;;16.90;99.90;;;;;;4995894;28;20049;-75
2022/09/07 06:10:54;;;;;;;22.42;18.77;;;16.90;99.90;;;;;;4995145;28;20047;-74
2022/09/07 06:13:20;;;;;;;22.42;19.45;;;17.10;99.90;;;;;;4995838;28;20104;-74
2022/09/07 06:15:45;;;;;;;21.90;18.33;;;17.10;99.90;;;;;;4996566;28;20101;-74
2022/09/07 06:18:11;;;;;;;23.83;19.45;;;17.00;99.90;;;;;;4995685;28;20082;-74
2022/09/07 06:20:37;;;;;;;20.17;17.98;;;17.30;99.90;;;;;;4995669;28;20053;-74
2022/09/07 06:23:02;;;;;;;22.13;19.30;;;17.20;99.90;;;;;;4994421;28;20058;-75
2022/09/07 06:25:28;;;;;;;20.77;18.40;;;17.10;99.90;;;;;;4996105;28;20048;-75
2022/09/07 06:27:54;;;;;;;21.92;18.48;;;17.20;99.90;;;;;;4995499;28;20062;-74
2022/09/07 06:30:20;;;;;;;25.33;19.58;;;17.10;99.90;;;;;;4995498;28;20533;-74
2022/09/07 06:32:46;;;;;;;25.77;18.98;;;17.30;99.90;;;;;;4995442;28;20047;-74
2022/09/07 06:35:13;;;;;;;23.38;18.83;;;17.20;99.90;;;;;;4995351;28;20049;-74
2022/09/07 06:37:39;;;;;;;23.05;19.60;;;17.10;99.90;;;;;;4995260;28;20050;-74
2022/09/07 06:40:06;;;;;;;24.13;19.17;;;17.30;99.90;;;;;;4995294;28;20096;-74
2022/09/07 06:42:32;;;;;;;21.65;18.75;;;17.50;99.90;;;;;;4995761;28;20054;-74
2022/09/07 06:44:58;;;;;;;23.55;19.38;;;17.20;99.90;;;;;;4995202;28;20050;-75
2022/09/07 06:47:23;;;;;;;21.13;18.50;;;17.40;99.90;;;;;;4995098;28;20132;-74
2022/09/07 06:49:49;;;;;;;23.60;18.90;;;17.20;99.90;;;;;;4994139;28;20042;-74
2022/09/07 06:52:15;;;;;;;23.38;19.40;;;17.40;99.90;;;;;;4995024;28;20054;-75
2022/09/07 06:54:41;;;;;;;24.02;19.60;;;17.40;99.90;;;;;;4994582;28;20052;-75
2022/09/07 06:57:07;;;;;;;28.17;20.70;;;17.50;99.90;;;;;;4995000;28;20050;-74
2022/09/07 06:59:36;;;;;;;19.75;17.65;;;17.50;99.90;;;;;;4994992;28;20113;-76
2022/09/07 07:02:03;;;;;;;22.52;18.83;;;17.60;99.90;;;;;;4993702;28;20054;-75
2022/09/07 07:04:29;;;;;;;23.05;18.90;;;17.50;99.90;;;;;;4995383;28;20096;-75
2022/09/07 07:06:54;;;;;;;20.92;18.08;;;17.60;99.90;;;;;;4977780;28;20054;-76
2022/09/07 07:09:20;;;;;;;20.83;17.67;;;17.60;99.90;;;;;;4995003;28;20046;-76
2022/09/07 07:11:47;;;;;;;20.70;18.48;;;17.90;99.90;;;;;;4994019;28;20101;-75
2022/09/07 07:14:17;;;;;;;21.25;18.10;;;17.60;99.90;;;;;;4994631;28;20466;-76
2022/09/07 07:16:43;;;;;;;21.45;18.67;;;17.80;99.90;;;;;;4994416;28;20058;-74
2022/09/07 07:19:09;;;;;;;20.00;17.90;;;17.90;99.90;;;;;;4993873;28;20042;-74
2022/09/07 07:21:35;;;;;;;21.85;18.13;;;17.80;99.90;;;;;;4995079;28;20062;-77
2022/09/07 07:24:00;;;;;;;19.05;17.13;;;17.90;99.90;;;;;;4994862;28;20054;-76
2022/09/07 07:26:26;;;;;;;19.70;16.42;;;17.90;99.90;;;;;;4995225;28;20038;-74
2022/09/07 07:28:54;;;;;;;19.30;16.95;;;18.00;99.90;;;;;;4994519;28;20050;-76
2022/09/07 07:31:22;;;;;;;18.88;16.83;;;17.90;99.90;;;;;;4994575;28;20050;-75
2022/09/07 07:34:07;;;;;;;17.92;16.13;;;18.00;99.90;;;;;;4994537;28;20089;-74
2022/09/07 07:36:34;;;;;;;19.38;15.60;;;18.10;99.90;;;;;;4994986;28;20050;-74
2022/09/07 07:39:00;;;;;;;17.52;15.65;;;18.00;99.90;;;;;;4994468;28;20050;-72
2022/09/07 07:41:30;;;;;;;18.08;15.90;;;17.90;99.90;;;;;;4994426;28;20204;-72
2022/09/07 07:43:57;;;;;;;18.60;16.60;;;18.00;99.90;;;;;;4994362;28;20042;-73
2022/09/07 07:46:26;;;;;;;18.23;15.90;;;17.90;99.90;;;;;;4994922;28;20133;-72
2022/09/07 07:48:52;;;;;;;20.73;16.55;;;18.00;99.90;;;;;;4994282;28;20074;-73
2022/09/07 07:51:18;;;;;;;20.80;17.08;;;17.80;99.90;;;;;;4994349;28;20142;-72
2022/09/07 07:53:44;;;;;;;18.52;16.63;;;17.90;99.90;;;;;;4994406;28;20054;-72
2022/09/07 07:56:11;;;;;;;19.83;16.55;;;18.00;99.90;;;;;;4994542;28;20053;-72
2022/09/07 07:58:38;;;;;;;21.98;18.27;;;17.90;99.90;;;;;;4994082;28;20113;-72
2022/09/07 08:01:12;;;;;;;18.02;16.08;;;17.80;99.90;;;;;;4994279;28;20046;-76
2022/09/07 08:03:40;;;;;;;19.15;17.02;;;18.10;99.90;;;;;;4994253;28;20104;-76
2022/09/07 08:06:12;;;;;;;20.70;16.63;;;17.90;99.90;;;;;;4994114;28;20043;-76
2022/09/07 08:08:38;;;;;;;17.92;15.98;;;18.00;99.90;;;;;;4994984;28;20085;-77
2022/09/07 08:11:07;;;;;;;20.85;17.55;;;18.00;99.90;;;;;;4994136;28;20053;-77
2022/09/07 08:13:39;;;;;;;20.38;18.13;;;18.00;99.90;;;;;;4994113;28;20050;-76
2022/09/07 08:16:05;;;;;;;19.75;17.70;;;17.80;99.90;;;;;;4995032;28;20046;-75
2022/09/07 08:18:35;;;;;;;17.77;15.77;;;18.00;99.90;;;;;;4994890;28;20101;-75
2022/09/07 08:21:06;;;;;;;18.80;16.80;;;17.80;99.90;;;;;;4993723;28;20051;-75
2022/09/07 08:23:33;;;;;;;21.50;18.15;;;18.00;99.90;;;;;;4993418;28;20382;-75
2022/09/07 08:25:59;;;;;;;21.13;17.25;;;18.00;99.90;;;;;;4994007;28;20054;-73
2022/09/07 08:28:30;;;;;;;18.85;16.55;;;18.00;99.90;;;;;;4994501;28;20054;-74
2022/09/07 08:30:57;;;;;;;19.95;17.50;;;18.10;99.90;;;;;;4998024;28;20446;-75
2022/09/07 08:33:23;;;;;;;19.55;16.55;;;18.10;99.90;;;;;;4997421;28;20514;-74
2022/09/07 08:35:57;;;;;;;21.05;16.95;;;18.10;99.90;;;;;;4997719;28;20050;-74
2022/09/07 08:38:23;;;;;;;21.50;15.85;;;18.20;99.90;;;;;;4997885;28;20054;-73
2022/09/07 08:40:50;;;;;;;17.70;15.80;;;18.30;99.90;;;;;;4997552;28;20042;-73
2022/09/07 08:43:18;;;;;;;19.10;17.02;;;18.20;99.90;;;;;;4997514;28;20050;-73
2022/09/07 08:45:58;;;;;;;20.38;17.80;;;18.30;99.90;;;;;;4997471;28;20134;-74
2022/09/07 08:48:30;;;;;;;18.30;16.45;;;18.50;99.90;;;;;;4997232;28;20046;-75
2022/09/07 08:51:16;;;;;;;22.15;17.40;;;18.30;99.90;;;;;;4997420;28;20046;-75
2022/09/07 08:53:47;;;;;;;20.17;16.13;;;18.40;99.90;;;;;;4997559;28;20108;-77
2022/09/07 08:56:30;;;;;;;19.40;16.02;;;18.40;99.90;;;;;;4996839;28;20371;-75
2022/09/07 08:58:56;;;;;;;;;;;18.30;99.90;;;;;;4997477;28;20092;-75
2022/09/07 09:01:27;;;;;;;18.15;15.70;;;18.40;99.90;;;;;;4997318;28;19968;-75
2022/09/07 09:03:53;;;;;;;21.58;17.80;;;18.40;99.90;;;;;;4997900;28;20050;-75
2022/09/07 09:06:27;;;;;;;18.98;16.38;;;18.40;99.90;;;;;;4997733;28;20100;-74
2022/09/07 09:09:12;;;;;;;20.33;16.75;;;18.00;99.90;;;;;;4996307;28;20045;-75
2022/09/07 09:11:58;;;;;;;19.50;15.77;;;18.50;99.90;;;;;;4996523;28;20061;-76
2022/09/07 09:14:40;;;;;;;18.25;16.35;;;18.60;99.90;;;;;;4996240;28;20109;-76
2022/09/07 09:17:11;;;;;;;18.80;15.83;;;18.50;99.90;;;;;;4996588;28;20042;-75
2022/09/07 09:19:54;;;;;;;21.38;16.63;;;18.70;99.90;;;;;;4996422;28;20081;-74
2022/09/07 09:22:25;;;;;;;19.52;16.77;;;18.50;99.90;;;;;;4996436;28;20046;-74
2022/09/07 09:25:14;;;;;;;18.30;16.27;;;18.80;99.90;;;;;;4996930;28;20077;-75
2022/09/07 09:27:40;;;;;;;17.02;15.23;;;18.60;99.90;;;;;;4996328;28;20074;-75
2022/09/07 09:30:15;;;;;;;17.92;15.88;;;18.80;99.90;;;;;;4995606;28;20046;-76
2022/09/07 09:32:43;;;;;;;18.55;16.25;;;18.70;99.90;;;;;;4995789;28;20423;-75
2022/09/07 09:35:31;;;;;;;17.58;15.15;;;18.90;99.90;;;;;;4994939;28;20042;-75
2022/09/07 09:37:57;;;;;;;20.38;16.02;;;18.80;99.90;;;;;;4994738;28;20045;-76
2022/09/07 09:40:33;;;;;;;20.35;16.33;;;18.80;99.90;;;;;;4996465;28;20042;-75
2022/09/07 09:43:05;;;;;;;19.75;17.02;;;18.80;99.90;;;;;;4995325;28;20129;-75
2022/09/07 09:45:34;;;;;;;19.33;16.03;;;19.40;99.90;;;;;;4995370;28;20208;-78
2022/09/07 09:48:07;;;;;;;17.95;15.57;;;19.20;99.90;;;;;;4996371;28;20425;-76
2022/09/07 09:50:37;;;;;;;;;;;19.70;99.90;;;;;;4995865;28;20058;-76
2022/09/07 09:53:05;;;;;;;20.70;17.23;;;19.20;99.90;;;;;;4995931;28;19928;-76
2022/09/07 09:55:34;;;;;;;18.42;15.60;;;19.20;99.90;;;;;;4994644;28;20466;-76
2022/09/07 09:58:02;;;;;;;21.08;16.50;;;19.30;99.90;;;;;;4995486;28;20117;-77
2022/09/07 10:00:30;;;;;;;19.58;16.85;;;19.30;99.90;;;;;;4996253;28;20108;-76
2022/09/07 10:03:13;;;;;;;18.38;15.65;;;19.30;99.90;;;;;;4994601;28;20501;-77
2022/09/07 10:05:45;;;;;;;19.83;15.50;;;19.70;99.90;;;;;;4996088;28;20046;-77
2022/09/07 10:08:21;;;;;;;19.25;17.23;;;19.40;99.90;;;;;;4995286;28;20176;-76
2022/09/07 10:10:51;;;;;;;21.45;17.63;;;19.30;99.90;;;;;;4994799;28;20047;-76
2022/09/07 10:13:33;;;;;;;20.73;16.25;;;19.40;99.90;;;;;;4993747;28;20529;-76
2022/09/07 10:16:07;;;;;;;;;;;19.70;99.90;;;;;;4996223;28;20047;-76
2022/09/07 10:18:39;;;;;;;;;;;19.30;99.90;;;;;;4995397;28;19926;-76
2022/09/07 10:21:29;;;;;;;19.10;16.55;;;19.60;99.90;;;;;;4995564;28;20021;-75
2022/09/07 10:24:12;;;;;;;19.70;16.92;;;19.60;99.90;;;;;;4994939;28;20046;-77
2022/09/07 10:26:38;;;;;;;18.73;15.27;;;19.80;99.90;;;;;;4994005;28;20052;-77
2022/09/07 10:29:23;;;;;;;19.88;16.63;;;19.70;99.90;;;;;;4995019;28;20141;-78
2022/09/07 10:31:55;;;;;;;17.80;15.30;;;20.00;99.90;;;;;;4995821;28;20054;-71
2022/09/07 10:34:30;;;;;;;18.95;16.02;;;20.00;99.90;;;;;;4994189;28;20054;-75
2022/09/07 10:37:07;;;;;;;20.27;16.98;;;19.90;99.90;;;;;;4994713;28;20046;-74
2022/09/07 10:39:47;;;;;;;17.98;16.08;;;20.00;99.90;;;;;;4994705;28;20117;-75
2022/09/07 10:42:29;;;;;;;21.88;16.95;;;20.00;99.90;;;;;;4978995;28;20352;-75
2022/09/07 10:45:16;;;;;;;17.55;15.07;;;19.80;99.90;;;;;;4995632;28;20129;-75
2022/09/07 10:48:03;;;;;;;18.10;15.60;;;20.20;99.90;;;;;;4995777;28;20057;-74
2022/09/07 10:50:30;;;;;;;16.20;14.55;;;20.10;99.90;;;;;;4995732;28;20050;-75
2022/09/07 10:53:29;;;;;;;18.63;16.58;;;19.90;99.90;;;;;;4995128;28;20046;-75
2022/09/07 10:56:20;;;;;;;17.67;15.20;;;19.90;99.90;;;;;;4994956;28;20057;-76
2022/09/07 10:59:09;;;;;;;17.85;15.20;;;19.90;99.90;;;;;;4995407;28;20137;-76
2022/09/07 11:01:42;;;;;;;19.63;17.05;;;19.90;99.90;;;;;;4994642;28;20129;-76
2022/09/07 11:04:33;;;;;;;18.52;16.17;;;19.80;99.90;;;;;;4993728;28;20046;-76
2022/09/07 11:07:16;;;;;;;14.18;12.70;;;20.10;99.90;;;;;;4995603;28;20046;-77
2022/09/07 11:09:58;;;;;;;12.15;10.77;;;19.80;99.90;;;;;;4993932;28;20125;-76
2022/09/07 11:12:29;;;;;;;;;;;20.00;99.90;;;;;;4995227;28;20054;-77
2022/09/07 11:15:13;;;;;;;10.13;9.15;;;20.20;99.90;;;;;;4994792;28;19922;-77
2022/09/07 11:18:17;;;;;;;10.82;9.40;;;20.20;99.90;;;;;;4994562;28;20509;-76
2022/09/07 11:20:53;;;;;;;11.35;10.23;;;20.40;99.90;;;;;;4993769;28;20058;-77
2022/09/07 11:23:33;;;;;;;13.32;11.50;;;20.40;99.90;;;;;;4994516;28;20085;-77
2022/09/07 11:26:20;;;;;;;13.95;12.57;;;20.70;99.90;;;;;;4993328;28;20051;-77
2022/09/07 11:28:54;;;;;;;15.23;12.00;;;20.40;99.90;;;;;;4993415;28;20399;-77
2022/09/07 11:31:29;;;;;;;14.73;13.23;;;20.40;99.90;;;;;;4994590;28;20065;-77
2022/09/07 11:34:00;;;;;;;13.38;12.02;;;20.50;99.90;;;;;;4994177;28;20402;-76
2022/09/07 11:36:31;;;;;;;14.77;12.10;;;20.60;99.90;;;;;;4995348;28;20398;-77
2022/09/07 11:39:03;;;;;;;9.40;8.40;;;20.70;99.90;;;;;;4994754;28;20181;-77
2022/09/07 11:41:32;;;;;;;7.82;7.03;;;20.70;99.90;;;;;;4977373;28;20109;-71
2022/09/07 11:44:17;;;;;;;9.98;8.75;;;21.20;99.90;;;;;;4994309;28;20082;-70
2022/09/07 11:47:08;;;;;;;12.27;11.07;;;21.00;99.90;;;;;;4993541;28;20618;-70
2022/09/07 11:49:34;;;;;;;14.07;12.68;;;20.90;99.90;;;;;;4993743;28;20450;-71
2022/09/07 11:52:38;;;;;;;12.32;11.05;;;21.30;99.90;;;;;;4994370;28;20086;-71
2022/09/07 11:55:10;;;;;;;11.85;10.48;;;21.40;99.90;;;;;;4972969;28;20090;-70
2022/09/07 11:57:43;;;;;;;10.25;9.00;;;21.20;99.90;;;;;;4991103;28;20482;-69
2022/09/07 12:00:11;;;;;;;11.75;9.05;;;21.60;99.90;;;;;;4993336;28;20051;-69
2022/09/07 12:03:05;;;;;;;9.75;8.75;;;21.50;99.90;;;;;;4993048;28;20082;-73
2022/09/07 12:05:46;;;;;;;9.55;8.63;;;21.20;99.90;;;;;;4998355;28;20046;-72
2022/09/07 12:08:21;;;;;;;10.30;8.10;;;21.60;99.90;;;;;;4998166;28;20093;-71
2022/09/07 12:10:58;;;;;;;8.60;7.53;;;21.50;99.90;;;;;;4999293;28;20042;-72
2022/09/07 12:13:45;;;;;;;8.57;7.25;;;21.40;99.90;;;;;;4999004;28;20082;-72
2022/09/07 12:16:22;;;;;;;6.13;5.53;;;21.50;99.90;;;;;;4998124;28;20556;-75
2022/09/07 12:19:19;;;;;;;6.78;6.07;;;21.30;99.90;;;;;;4997105;28;20053;-72
2022/09/07 12:21:50;;;;;;;7.63;6.05;;;21.50;99.90;;;;;;4997370;28;20051;-73
2022/09/07 12:24:31;;;;;;;9.07;7.05;;;21.70;99.90;;;;;;4998741;28;20050;-74
2022/09/07 12:26:58;;;;;;;7.30;5.95;;;21.30;99.90;;;;;;4998733;28;20054;-71
2022/09/07 12:29:25;;;;;;;6.47;5.50;;;21.70;99.90;;;;;;4997807;28;20085;-72
2022/09/07 12:31:53;;;;;;;5.60;4.75;;;21.80;99.90;;;;;;4998565;28;20061;-70
2022/09/07 12:34:31;;;;;;;6.72;4.95;;;21.40;99.90;;;;;;4997765;28;20060;-72
2022/09/07 12:37:00;;;;;;;5.47;4.97;;;21.70;99.90;;;;;;4997681;28;20046;-70
2022/09/07 12:39:33;;;;;;;6.65;5.25;;;21.70;99.90;;;;;;4997805;28;20537;-72
2022/09/07 12:42:05;;;;;;;3.60;3.30;;;21.40;99.90;;;;;;4997655;28;20061;-72
2022/09/07 12:44:35;;;;;;;4.93;3.45;;;21.60;99.90;;;;;;4997608;28;20046;-72
2022/09/07 12:47:19;;;;;;;3.60;3.30;;;21.60;99.90;;;;;;4996481;28;20447;-71
2022/09/07 12:50:04;;;;;;;4.78;4.28;;;21.60;99.90;;;;;;4996723;28;20054;-72
2022/09/07 12:52:39;;;;;;;4.90;3.83;;;21.90;99.90;;;;;;4997477;28;20130;-68
2022/09/07 12:55:14;;;;;;;5.07;3.92;;;21.70;99.90;;;;;;4997369;28;20125;-68
2022/09/07 12:58:02;;;;;;;6.95;4.70;;;22.00;99.90;;;;;;4998204;28;20394;-68